createdAt,value
2017-11-05T00:00:35.912Z,42.86
2017-11-05T00:01:44.606Z,42.67
2017-11-05T00:02:53.960Z,42.67
2017-11-05T00:04:03.029Z,42.76
2017-11-05T00:05:12.047Z,42.57
2017-11-05T00:06:21.405Z,42.67
2017-11-05T00:07:31.094Z,42.67
2017-11-05T00:08:40.778Z,42.67
2017-11-05T00:09:50.468Z,42.76
2017-11-05T00:10:59.152Z,42.38
2017-11-05T00:12:08.178Z,42.76
2017-11-05T00:13:17.202Z,42.86
2017-11-05T00:14:25.894Z,42.67
2017-11-05T00:15:35.253Z,42.67
2017-11-05T00:16:44.937Z,42.67
2017-11-05T00:17:53.632Z,42.67
2017-11-05T00:19:03.320Z,42.76
2017-11-05T00:20:13.006Z,42.86
2017-11-05T00:21:22.368Z,42.57
2017-11-05T00:22:31.391Z,43.15
2017-11-05T00:23:40.414Z,42.57
2017-11-05T00:24:50.133Z,42.67
2017-11-05T00:25:59.163Z,42.47
2017-11-05T00:27:08.844Z,42.67
2017-11-05T00:28:17.535Z,42.67
2017-11-05T00:29:26.566Z,42.67
2017-11-05T00:30:35.254Z,42.76
2017-11-05T00:31:44.609Z,42.84
2017-11-05T00:32:54.292Z,42.76
2017-11-05T00:34:03.310Z,42.86
2017-11-05T00:35:12.338Z,43.05
2017-11-05T00:36:21.700Z,42.76
2017-11-05T00:37:31.056Z,43.05
2017-11-05T00:38:40.080Z,42.67
2017-11-05T00:39:49.439Z,42.65
2017-11-05T00:40:58.797Z,42.76
2017-11-05T00:42:07.491Z,42.76
2017-11-05T00:43:16.514Z,42.76
2017-11-05T00:44:25.870Z,42.67
2017-11-05T00:45:34.561Z,42.67
2017-11-05T00:46:43.912Z,42.36
2017-11-05T00:47:52.932Z,42.38
2017-11-05T00:49:02.286Z,42.65
2017-11-05T00:50:10.976Z,42.57
2017-11-05T00:51:20.002Z,42.46
2017-11-05T00:52:29.353Z,42.55
2017-11-05T00:53:38.703Z,42.47
2017-11-05T00:54:48.061Z,42.55
2017-11-05T00:55:56.751Z,42.67
2017-11-05T00:57:05.774Z,42.96
2017-11-05T00:58:15.462Z,42.55
2017-11-05T00:59:24.152Z,42.46
2017-11-05T01:00:32.841Z,42.86
2017-11-05T01:01:41.529Z,42.74
2017-11-05T01:02:50.879Z,42.96
2017-11-05T01:03:59.898Z,42.67
2017-11-05T01:05:09.254Z,43.03
2017-11-05T01:06:18.601Z,42.65
2017-11-05T01:07:27.626Z,43.05
2017-11-05T01:08:36.988Z,42.74
2017-11-05T01:09:46.677Z,42.74
2017-11-05T01:10:55.698Z,42.74
2017-11-05T01:12:04.399Z,42.93
2017-11-05T01:13:13.425Z,43.03
2017-11-05T01:14:23.118Z,42.93
2017-11-05T01:15:32.137Z,43.03
2017-11-05T01:16:41.158Z,43.23
2017-11-05T01:17:50.180Z,43.03
2017-11-05T01:18:59.541Z,42.46
2017-11-05T01:20:08.557Z,43.23
2017-11-05T01:21:17.909Z,43.03
2017-11-05T01:22:26.600Z,42.74
2017-11-05T01:23:35.971Z,42.84
2017-11-05T01:24:45.344Z,42.84
2017-11-05T01:25:55.372Z,42.65
2017-11-05T01:27:04.725Z,43.03
2017-11-05T01:28:13.746Z,42.55
2017-11-05T01:29:22.767Z,42.65
2017-11-05T01:30:32.176Z,42.55
2017-11-05T01:31:41.863Z,42.65
2017-11-05T01:32:50.888Z,42.84
2017-11-05T01:33:59.915Z,42.74
2017-11-05T01:35:08.944Z,43.03
2017-11-05T01:36:17.962Z,42.65
2017-11-05T01:37:27.319Z,42.74
2017-11-05T01:38:36.674Z,42.74
2017-11-05T01:39:46.030Z,43.03
2017-11-05T01:40:55.393Z,43.03
2017-11-05T01:42:04.417Z,42.93
2017-11-05T01:43:13.768Z,42.84
2017-11-05T01:44:23.121Z,42.84
2017-11-05T01:45:32.477Z,43.03
2017-11-05T01:46:41.494Z,42.84
2017-11-05T01:47:50.516Z,42.93
2017-11-05T01:48:59.542Z,42.93
2017-11-05T01:50:08.945Z,42.84
2017-11-05T01:51:17.637Z,42.84
2017-11-05T01:52:27.655Z,42.84
2017-11-05T01:53:37.007Z,42.93
2017-11-05T01:54:46.029Z,42.84
2017-11-05T01:55:55.391Z,42.84
2017-11-05T01:57:05.080Z,42.84
2017-11-05T01:58:14.431Z,43.13
2017-11-05T01:59:23.454Z,43.03
2017-11-05T02:00:32.139Z,42.93
2017-11-05T02:01:41.495Z,42.74
2017-11-05T02:02:50.848Z,42.93
2017-11-05T02:04:00.206Z,43.03
2017-11-05T02:05:09.562Z,42.93
2017-11-05T02:06:19.605Z,43.03
2017-11-05T02:07:28.629Z,42.93
2017-11-05T02:08:37.655Z,43.13
2017-11-05T02:09:47.013Z,43.13
2017-11-05T02:10:56.039Z,42.93
2017-11-05T02:12:05.057Z,42.93
2017-11-05T02:13:14.410Z,43.03
2017-11-05T02:14:23.100Z,42.93
2017-11-05T02:15:32.789Z,43.03
2017-11-05T02:16:41.825Z,43.13
2017-11-05T02:17:50.847Z,43.13
2017-11-05T02:19:00.199Z,42.84
2017-11-05T02:20:09.553Z,42.93
2017-11-05T02:21:18.291Z,42.93
2017-11-05T02:22:27.311Z,42.84
2017-11-05T02:23:36.333Z,42.93
2017-11-05T02:24:45.354Z,43.03
2017-11-05T02:25:54.713Z,43.23
2017-11-05T02:27:04.067Z,42.84
2017-11-05T02:28:13.750Z,43.03
2017-11-05T02:29:22.771Z,43.03
2017-11-05T02:30:32.137Z,43.23
2017-11-05T02:31:41.492Z,42.93
2017-11-05T02:32:51.179Z,42.93
2017-11-05T02:34:00.224Z,43.23
2017-11-05T02:35:09.246Z,43.23
2017-11-05T02:36:18.958Z,43.03
2017-11-05T02:37:27.992Z,42.93
2017-11-05T02:38:37.014Z,43.03
2017-11-05T02:39:46.036Z,43.03
2017-11-05T02:40:55.060Z,43.03
2017-11-05T02:42:03.751Z,43.13
2017-11-05T02:43:12.442Z,43.13
2017-11-05T02:44:21.463Z,43.13
2017-11-05T02:45:30.484Z,43.23
2017-11-05T02:46:39.503Z,42.93
2017-11-05T02:47:48.859Z,42.93
2017-11-05T02:48:57.897Z,42.93
2017-11-05T02:50:07.594Z,43.03
2017-11-05T02:51:16.616Z,43.13
2017-11-05T02:52:26.027Z,43.03
2017-11-05T02:53:35.047Z,43.03
2017-11-05T02:54:44.729Z,43.03
2017-11-05T02:55:54.415Z,43.13
2017-11-05T02:57:03.102Z,43.41
2017-11-05T02:58:12.799Z,43.03
2017-11-05T02:59:22.161Z,43.32
2017-11-05T03:00:31.199Z,43.13
2017-11-05T03:01:40.212Z,43.13
2017-11-05T03:02:49.235Z,43.32
2017-11-05T03:03:57.929Z,43.23
2017-11-05T03:05:06.620Z,43.23
2017-11-05T03:06:15.971Z,43.23
2017-11-05T03:07:24.994Z,43.23
2017-11-05T03:08:33.683Z,43.13
2017-11-05T03:09:43.380Z,43.03
2017-11-05T03:10:52.402Z,43.32
2017-11-05T03:12:01.091Z,43.23
2017-11-05T03:13:09.830Z,43.23
2017-11-05T03:14:18.522Z,43.23
2017-11-05T03:15:27.215Z,43.23
2017-11-05T03:16:36.570Z,43.32
2017-11-05T03:17:45.923Z,43.23
2017-11-05T03:18:55.609Z,43.13
2017-11-05T03:20:04.632Z,43.32
2017-11-05T03:21:13.670Z,43.23
2017-11-05T03:22:23.019Z,43.32
2017-11-05T03:23:32.421Z,43.32
2017-11-05T03:24:41.772Z,43.32
2017-11-05T03:25:50.794Z,43.41
2017-11-05T03:27:00.142Z,43.23
2017-11-05T03:28:09.163Z,43.32
2017-11-05T03:29:17.856Z,43.23
2017-11-05T03:30:27.542Z,43.23
2017-11-05T03:31:36.564Z,43.32
2017-11-05T03:32:45.917Z,43.32
2017-11-05T03:33:54.991Z,43.32
2017-11-05T03:35:04.342Z,43.41
2017-11-05T03:36:13.363Z,43.23
2017-11-05T03:37:22.058Z,43.41
2017-11-05T03:38:31.078Z,43.13
2017-11-05T03:39:40.099Z,43.41
2017-11-05T03:40:49.472Z,43.32
2017-11-05T03:41:58.487Z,43.13
2017-11-05T03:43:07.176Z,43.32
2017-11-05T03:44:16.524Z,43.41
2017-11-05T03:45:25.212Z,43.41
2017-11-05T03:46:33.902Z,43.41
2017-11-05T03:47:43.254Z,43.32
2017-11-05T03:48:52.279Z,43.41
2017-11-05T03:50:01.306Z,43.41
2017-11-05T03:51:11.320Z,43.51
2017-11-05T03:52:20.008Z,43.32
2017-11-05T03:53:29.027Z,43.51
2017-11-05T03:54:38.379Z,43.41
2017-11-05T03:55:47.398Z,43.23
2017-11-05T03:56:57.083Z,43.41
2017-11-05T03:58:06.433Z,43.41
2017-11-05T03:59:15.461Z,43.41
2017-11-05T04:00:24.823Z,43.51
2017-11-05T04:01:33.849Z,43.32
2017-11-05T04:02:42.856Z,43.32
2017-11-05T04:03:51.548Z,43.23
2017-11-05T04:05:00.947Z,43.23
2017-11-05T04:06:09.638Z,43.41
2017-11-05T04:07:18.657Z,43.03
2017-11-05T04:08:28.017Z,43.41
2017-11-05T04:09:37.369Z,43.03
2017-11-05T04:10:47.058Z,43.61
2017-11-05T04:11:56.081Z,43.61
2017-11-05T04:13:05.444Z,43.23
2017-11-05T04:14:14.481Z,43.41
2017-11-05T04:15:23.500Z,43.61
2017-11-05T04:16:32.539Z,43.51
2017-11-05T04:17:41.894Z,43.71
2017-11-05T04:18:50.918Z,43.32
2017-11-05T04:20:00.610Z,43.13
2017-11-05T04:21:10.314Z,43.41
2017-11-05T04:22:19.717Z,43.41
2017-11-05T04:23:29.405Z,43.41
2017-11-05T04:24:38.426Z,43.71
2017-11-05T04:25:47.443Z,43.41
2017-11-05T04:26:57.128Z,43.41
2017-11-05T04:28:06.480Z,43.32
2017-11-05T04:29:15.502Z,43.41
2017-11-05T04:30:24.190Z,43.41
2017-11-05T04:31:33.217Z,43.8
2017-11-05T04:32:42.245Z,43.61
2017-11-05T04:33:51.930Z,43.9
2017-11-05T04:35:00.623Z,43.51
2017-11-05T04:36:09.650Z,43.71
2017-11-05T04:37:19.004Z,43.51
2017-11-05T04:38:29.030Z,43.9
2017-11-05T04:39:38.057Z,43.8
2017-11-05T04:40:47.742Z,43.8
2017-11-05T04:41:56.430Z,43.51
2017-11-05T04:43:05.780Z,43.8
2017-11-05T04:44:15.468Z,43.71
2017-11-05T04:45:24.540Z,43.8
2017-11-05T04:46:34.567Z,43.71
2017-11-05T04:47:43.586Z,43.71
2017-11-05T04:48:52.608Z,43.8
2017-11-05T04:50:01.959Z,43.71
2017-11-05T04:51:10.648Z,43.61
2017-11-05T04:52:19.348Z,43.71
2017-11-05T04:53:28.699Z,43.8
2017-11-05T04:54:38.729Z,43.71
2017-11-05T04:55:47.747Z,43.71
2017-11-05T04:56:57.110Z,43.71
2017-11-05T04:58:05.819Z,43.8
2017-11-05T04:59:14.825Z,43.51
2017-11-05T05:00:23.843Z,43.71
2017-11-05T05:01:33.198Z,43.71
2017-11-05T05:02:42.216Z,43.51
2017-11-05T05:03:51.242Z,43.51
2017-11-05T05:05:00.632Z,43.51
2017-11-05T05:06:09.661Z,43.51
2017-11-05T05:07:19.012Z,43.61
2017-11-05T05:08:27.700Z,43.71
2017-11-05T05:09:36.720Z,43.71
2017-11-05T05:10:45.410Z,43.8
2017-11-05T05:11:55.429Z,43.97
2017-11-05T05:13:04.782Z,43.61
2017-11-05T05:14:14.135Z,43.9
2017-11-05T05:15:22.827Z,43.51
2017-11-05T05:16:32.518Z,43.71
2017-11-05T05:17:41.873Z,43.61
2017-11-05T05:18:50.564Z,43.71
2017-11-05T05:19:59.586Z,43.61
2017-11-05T05:21:08.609Z,43.61
2017-11-05T05:22:17.624Z,43.8
2017-11-05T05:23:26.979Z,43.8
2017-11-05T05:24:35.998Z,43.9
2017-11-05T05:25:45.021Z,43.61
2017-11-05T05:26:53.712Z,43.8
2017-11-05T05:28:02.403Z,43.9
2017-11-05T05:29:12.121Z,43.61
2017-11-05T05:30:20.810Z,43.9
2017-11-05T05:31:29.835Z,43.99
2017-11-05T05:32:38.859Z,43.8
2017-11-05T05:33:48.884Z,43.9
2017-11-05T05:34:57.908Z,43.8
2017-11-05T05:36:06.926Z,43.9
2017-11-05T05:37:15.946Z,43.9
2017-11-05T05:38:25.300Z,43.41
2017-11-05T05:39:34.653Z,43.61
2017-11-05T05:40:43.692Z,43.61
2017-11-05T05:41:52.712Z,43.41
2017-11-05T05:43:01.404Z,43.32
2017-11-05T05:44:10.427Z,43.23
2017-11-05T05:45:19.119Z,43.03
2017-11-05T05:46:28.139Z,43.51
2017-11-05T05:47:38.162Z,43.51
2017-11-05T05:48:47.183Z,43.13
2017-11-05T05:49:56.541Z,43.41
2017-11-05T05:51:05.236Z,43.51
2017-11-05T05:52:14.594Z,43.32
2017-11-05T05:53:24.618Z,43.23
2017-11-05T05:54:33.643Z,43.32
2017-11-05T05:55:42.671Z,43.13
2017-11-05T05:56:51.694Z,43.32
2017-11-05T05:58:01.374Z,43.32
2017-11-05T05:59:11.079Z,43.41
2017-11-05T06:00:19.769Z,43.23
2017-11-05T06:01:29.124Z,43.23
2017-11-05T06:02:38.159Z,43.23
2017-11-05T06:03:47.528Z,43.23
2017-11-05T06:04:56.885Z,43.23
2017-11-05T06:06:05.574Z,43.23
2017-11-05T06:07:14.595Z,43.03
2017-11-05T06:08:24.614Z,42.93
2017-11-05T06:09:33.352Z,43.03
2017-11-05T06:10:43.040Z,43.03
2017-11-05T06:11:52.393Z,43.13
2017-11-05T06:13:01.415Z,43.23
2017-11-05T06:14:10.440Z,43.23
2017-11-05T06:15:19.458Z,43.23
2017-11-05T06:16:28.820Z,42.93
2017-11-05T06:17:38.174Z,43.13
2017-11-05T06:18:47.195Z,42.84
2017-11-05T06:19:56.878Z,42.93
2017-11-05T06:21:06.238Z,43.03
2017-11-05T06:22:14.925Z,42.74
2017-11-05T06:23:24.276Z,42.84
2017-11-05T06:24:33.298Z,43.03
2017-11-05T06:25:41.989Z,43.03
2017-11-05T06:26:50.676Z,42.93
2017-11-05T06:28:00.050Z,43.03
2017-11-05T06:29:09.077Z,43.03
2017-11-05T06:30:18.095Z,42.93
2017-11-05T06:31:27.448Z,43.23
2017-11-05T06:32:36.814Z,43.13
2017-11-05T06:33:46.169Z,42.84
2017-11-05T06:34:55.197Z,42.84
2017-11-05T06:36:04.228Z,42.93
2017-11-05T06:37:13.568Z,42.84
2017-11-05T06:38:22.617Z,42.84
2017-11-05T06:39:31.668Z,42.84
2017-11-05T06:40:41.025Z,42.93
2017-11-05T06:41:49.711Z,42.84
2017-11-05T06:42:58.403Z,42.84
2017-11-05T06:44:07.758Z,42.93
2017-11-05T06:45:16.781Z,42.65
2017-11-05T06:46:26.137Z,43.03
2017-11-05T06:47:35.498Z,42.74
2017-11-05T06:48:44.852Z,43.03
2017-11-05T06:49:53.591Z,42.84
2017-11-05T06:51:02.950Z,42.84
2017-11-05T06:52:11.977Z,42.74
2017-11-05T06:53:20.671Z,42.65
2017-11-05T06:54:29.697Z,43.03
2017-11-05T06:55:39.045Z,42.84
2017-11-05T06:56:48.066Z,42.65
2017-11-05T06:57:57.086Z,43.13
2017-11-05T06:59:06.106Z,42.84
2017-11-05T07:00:15.795Z,42.65
2017-11-05T07:01:24.819Z,42.65
2017-11-05T07:02:33.839Z,42.93
2017-11-05T07:03:42.868Z,42.84
2017-11-05T07:04:51.888Z,43.03
2017-11-05T07:06:01.246Z,42.74
2017-11-05T07:07:09.937Z,42.65
2017-11-05T07:08:18.623Z,42.57
2017-11-05T07:09:27.977Z,42.93
2017-11-05T07:10:36.666Z,42.84
2017-11-05T07:11:45.697Z,43.05
2017-11-05T07:12:55.050Z,42.67
2017-11-05T07:14:04.089Z,42.55
2017-11-05T07:15:13.438Z,42.47
2017-11-05T07:16:22.461Z,42.57
2017-11-05T07:17:31.817Z,42.57
2017-11-05T07:18:40.840Z,43.03
2017-11-05T07:19:49.860Z,42.55
2017-11-05T07:20:58.879Z,42.67
2017-11-05T07:22:08.231Z,42.36
2017-11-05T07:23:17.590Z,43.15
2017-11-05T07:24:26.613Z,42.67
2017-11-05T07:25:35.965Z,42.96
2017-11-05T07:26:45.650Z,43.05
2017-11-05T07:27:55.336Z,42.67
2017-11-05T07:29:04.025Z,42.67
2017-11-05T07:30:13.045Z,42.67
2017-11-05T07:31:22.450Z,42.76
2017-11-05T07:32:31.144Z,42.67
2017-11-05T07:33:40.165Z,42.67
2017-11-05T07:34:49.853Z,42.67
2017-11-05T07:35:59.215Z,42.67
2017-11-05T07:37:08.582Z,42.76
2017-11-05T07:38:18.267Z,42.76
2017-11-05T07:39:27.285Z,42.96
2017-11-05T07:40:36.968Z,43.05
2017-11-05T07:41:45.993Z,43.15
2017-11-05T07:42:54.676Z,42.76
2017-11-05T07:44:03.704Z,42.76
2017-11-05T07:45:13.402Z,42.86
2017-11-05T07:46:22.420Z,42.86
2017-11-05T07:47:31.441Z,42.57
2017-11-05T07:48:40.464Z,42.67
2017-11-05T07:49:49.821Z,42.67
2017-11-05T07:50:59.850Z,43.15
2017-11-05T07:52:08.532Z,42.76
2017-11-05T07:53:17.559Z,42.67
2017-11-05T07:54:26.576Z,43.24
2017-11-05T07:55:35.598Z,42.57
2017-11-05T07:56:44.287Z,42.67
2017-11-05T07:57:53.028Z,42.47
2017-11-05T07:59:02.724Z,42.67
2017-11-05T08:00:12.091Z,42.38
2017-11-05T08:01:21.442Z,42.76
2017-11-05T08:02:30.134Z,42.57
2017-11-05T08:03:38.825Z,42.67
2017-11-05T08:04:48.519Z,42.76
2017-11-05T08:05:57.206Z,42.67
2017-11-05T08:07:06.556Z,42.57
2017-11-05T08:08:15.574Z,42.76
2017-11-05T08:09:24.597Z,42.57
2017-11-05T08:10:33.293Z,42.96
2017-11-05T08:11:42.640Z,42.38
2017-11-05T08:12:51.335Z,42.67
2017-11-05T08:14:00.021Z,42.86
2017-11-05T08:15:09.042Z,42.67
2017-11-05T08:16:17.733Z,42.38
2017-11-05T08:17:26.752Z,42.28
2017-11-05T08:18:35.442Z,42.76
2017-11-05T08:19:44.465Z,42.86
2017-11-05T08:20:53.815Z,42.86
2017-11-05T08:22:02.507Z,42.38
2017-11-05T08:23:11.529Z,42.28
2017-11-05T08:24:20.550Z,42.76
2017-11-05T08:25:29.241Z,42.76
2017-11-05T08:26:38.928Z,42.76
2017-11-05T08:27:48.615Z,42.76
2017-11-05T08:28:57.971Z,42.86
2017-11-05T08:30:07.326Z,42.86
2017-11-05T08:31:16.019Z,42.86
2017-11-05T08:32:25.368Z,42.38
2017-11-05T08:33:35.053Z,42.47
2017-11-05T08:34:44.074Z,42.38
2017-11-05T08:35:53.096Z,42.38
2017-11-05T08:37:02.454Z,42.19
2017-11-05T08:38:11.470Z,42.96
2017-11-05T08:39:20.164Z,42.38
2017-11-05T08:40:29.190Z,42.38
2017-11-05T08:41:38.547Z,42.86
2017-11-05T08:42:47.909Z,42.19
2017-11-05T08:43:56.937Z,42.28
2017-11-05T08:45:06.624Z,42.38
2017-11-05T08:46:15.974Z,42.76
2017-11-05T08:47:25.324Z,42.19
2017-11-05T08:48:34.688Z,42.19
2017-11-05T08:49:44.046Z,42.19
2017-11-05T08:50:53.071Z,42.86
2017-11-05T08:52:02.099Z,42.76
2017-11-05T08:53:12.120Z,42.19
2017-11-05T08:54:21.140Z,42.28
2017-11-05T08:55:30.169Z,42.86
2017-11-05T08:56:38.859Z,42.86
2017-11-05T08:57:49.215Z,42.96
2017-11-05T08:58:58.564Z,42.19
2017-11-05T09:00:07.251Z,42.28
2017-11-05T09:01:16.272Z,42.19
2017-11-05T09:02:25.293Z,42.86
2017-11-05T09:03:34.647Z,42.86
2017-11-05T09:04:44.338Z,42.19
2017-11-05T09:05:53.366Z,42.28
2017-11-05T09:07:02.058Z,42.38
2017-11-05T09:08:11.412Z,42.86
2017-11-05T09:09:21.102Z,42.28
2017-11-05T09:10:30.118Z,42.86
2017-11-05T09:11:39.137Z,42.09
2017-11-05T09:12:48.486Z,42.19
2017-11-05T09:13:57.510Z,42.09
2017-11-05T09:15:06.202Z,42.96
2017-11-05T09:16:15.890Z,42.28
2017-11-05T09:17:24.906Z,42.4
2017-11-05T09:18:34.595Z,42.38
2017-11-05T09:19:43.288Z,42.38
2017-11-05T09:20:51.975Z,42.28
2017-11-05T09:22:01.993Z,42.49
2017-11-05T09:23:11.349Z,42.47
2017-11-05T09:24:20.372Z,42.28
2017-11-05T09:25:29.403Z,42.47
2017-11-05T09:26:38.758Z,42.38
2017-11-05T09:27:47.778Z,42.28
2017-11-05T09:28:57.132Z,42.38
2017-11-05T09:30:06.165Z,42.38
2017-11-05T09:31:15.187Z,42.09
2017-11-05T09:32:23.880Z,42.47
2017-11-05T09:33:33.240Z,42.19
2017-11-05T09:34:42.924Z,42.38
2017-11-05T09:35:51.948Z,42.38
2017-11-05T09:37:00.640Z,42.28
2017-11-05T09:38:10.333Z,42.47
2017-11-05T09:39:19.357Z,42.28
2017-11-05T09:40:28.714Z,42.49
2017-11-05T09:41:38.072Z,42.19
2017-11-05T09:42:47.436Z,42.47
2017-11-05T09:43:56.788Z,42.47
2017-11-05T09:45:05.485Z,42.49
2017-11-05T09:46:14.846Z,42.49
2017-11-05T09:47:24.213Z,42.3
2017-11-05T09:48:32.899Z,42.4
2017-11-05T09:49:42.584Z,42.28
2017-11-05T09:50:51.604Z,42.11
2017-11-05T09:52:00.625Z,42.21
2017-11-05T09:53:10.334Z,41.92
2017-11-05T09:54:20.028Z,41.92
2017-11-05T09:55:29.713Z,42.3
2017-11-05T09:56:38.737Z,42.3
2017-11-05T09:57:48.089Z,42.11
2017-11-05T09:58:57.117Z,42.19
2017-11-05T10:00:06.812Z,41.92
2017-11-05T10:01:15.498Z,42.02
2017-11-05T10:02:24.851Z,42.11
2017-11-05T10:03:33.545Z,42.11
2017-11-05T10:04:42.569Z,42.3
2017-11-05T10:05:51.925Z,42.21
2017-11-05T10:07:00.950Z,41.92
2017-11-05T10:08:09.638Z,41.82
2017-11-05T10:09:18.998Z,42.02
2017-11-05T10:10:28.349Z,42.02
2017-11-05T10:11:37.038Z,41.92
2017-11-05T10:12:46.062Z,41.72
2017-11-05T10:13:55.426Z,41.53
2017-11-05T10:15:04.454Z,41.72
2017-11-05T10:16:14.208Z,41.72
2017-11-05T10:17:23.232Z,41.63
2017-11-05T10:18:32.254Z,41.63
2017-11-05T10:19:41.613Z,42.02
2017-11-05T10:20:50.635Z,41.72
2017-11-05T10:21:59.659Z,41.72
2017-11-05T10:23:08.347Z,41.92
2017-11-05T10:24:18.034Z,41.92
2017-11-05T10:25:27.080Z,41.53
2017-11-05T10:26:36.775Z,41.53
2017-11-05T10:27:46.475Z,41.92
2017-11-05T10:28:55.835Z,42.02
2017-11-05T10:30:05.576Z,41.34
2017-11-05T10:31:14.601Z,41.82
2017-11-05T10:32:23.625Z,42.02
2017-11-05T10:33:33.325Z,41.14
2017-11-05T10:34:42.347Z,41.72
2017-11-05T10:35:51.373Z,41.92
2017-11-05T10:37:00.396Z,41.14
2017-11-05T10:38:09.424Z,41.92
2017-11-05T10:39:18.449Z,41.84
2017-11-05T10:40:27.808Z,41.14
2017-11-05T10:41:36.834Z,41.44
2017-11-05T10:42:46.528Z,41.72
2017-11-05T10:43:55.220Z,41.75
2017-11-05T10:45:04.250Z,41.44
2017-11-05T10:46:13.289Z,41.34
2017-11-05T10:47:22.981Z,41.36
2017-11-05T10:48:31.675Z,41.07
2017-11-05T10:49:40.370Z,40.69
2017-11-05T10:50:49.727Z,40.88
2017-11-05T10:51:59.095Z,41.07
2017-11-05T10:53:08.806Z,40.97
2017-11-05T10:54:17.834Z,40.69
2017-11-05T10:55:26.856Z,40.88
2017-11-05T10:56:36.222Z,41.17
2017-11-05T10:57:45.243Z,40.49
2017-11-05T10:58:54.267Z,41.17
2017-11-05T11:00:02.967Z,40.69
2017-11-05T11:01:11.993Z,40.39
2017-11-05T11:02:21.019Z,40.69
2017-11-05T11:03:30.046Z,41.27
2017-11-05T11:04:39.072Z,40.69
2017-11-05T11:05:48.096Z,41.27
2017-11-05T11:06:57.449Z,41.27
2017-11-05T11:08:06.805Z,40.69
2017-11-05T11:09:16.162Z,40.69
2017-11-05T11:10:24.853Z,40.69
2017-11-05T11:11:34.550Z,40.69
2017-11-05T11:12:43.259Z,40.69
2017-11-05T11:13:52.614Z,40.78
2017-11-05T11:15:01.982Z,40.69
2017-11-05T11:16:11.672Z,40.78
2017-11-05T11:17:21.359Z,40.97
2017-11-05T11:18:30.383Z,40.88
2017-11-05T11:19:39.747Z,41.07
2017-11-05T11:20:48.771Z,41.55
2017-11-05T11:21:57.796Z,41.17
2017-11-05T11:23:07.483Z,41.36
2017-11-05T11:24:16.514Z,41.46
2017-11-05T11:25:25.535Z,41.36
2017-11-05T11:26:34.226Z,41.75
2017-11-05T11:27:43.250Z,41.27
2017-11-05T11:28:52.282Z,41.75
2017-11-05T11:30:01.306Z,41.27
2017-11-05T11:31:10.382Z,41.36
2017-11-05T11:32:19.407Z,41.55
2017-11-05T11:33:28.433Z,41.27
2017-11-05T11:34:37.789Z,41.27
2017-11-05T11:35:47.480Z,41.65
2017-11-05T11:36:56.509Z,41.36
2017-11-05T11:38:05.872Z,41.46
2017-11-05T11:39:14.568Z,41.46
2017-11-05T11:40:23.599Z,41.36
2017-11-05T11:41:33.303Z,41.55
2017-11-05T11:42:42.329Z,41.55
2017-11-05T11:43:51.357Z,41.36
2017-11-05T11:45:00.046Z,40.69
2017-11-05T11:46:09.068Z,41.07
2017-11-05T11:47:18.448Z,40.88
2017-11-05T11:48:27.122Z,40.88
2017-11-05T11:49:36.811Z,40.78
2017-11-05T11:50:46.163Z,40.78
2017-11-05T11:51:54.852Z,40.88
2017-11-05T11:53:04.212Z,40.88
2017-11-05T11:54:13.563Z,41.36
2017-11-05T11:55:22.920Z,40.97
2017-11-05T11:56:32.272Z,40.69
2017-11-05T11:57:41.972Z,40.88
2017-11-05T11:58:51.330Z,41.36
2017-11-05T12:00:00.009Z,41.36
2017-11-05T12:01:09.367Z,41.46
2017-11-05T12:02:19.051Z,41.07
2017-11-05T12:03:28.408Z,41.07
2017-11-05T12:04:38.095Z,41.17
2017-11-05T12:05:47.119Z,41.46
2017-11-05T12:06:56.144Z,41.07
2017-11-05T12:08:04.835Z,41.27
2017-11-05T12:09:13.538Z,40.97
2017-11-05T12:10:22.561Z,40.88
2017-11-05T12:11:31.582Z,40.88
2017-11-05T12:12:40.608Z,40.69
2017-11-05T12:13:49.302Z,40.78
2017-11-05T12:14:58.661Z,40.88
2017-11-05T12:16:08.020Z,40.88
2017-11-05T12:17:17.039Z,40.78
2017-11-05T12:18:26.060Z,41.17
2017-11-05T12:19:35.086Z,41.07
2017-11-05T12:20:44.440Z,40.78
2017-11-05T12:21:53.132Z,40.88
2017-11-05T12:23:01.871Z,40.69
2017-11-05T12:24:10.912Z,40.8
2017-11-05T12:25:20.250Z,40.99
2017-11-05T12:26:28.940Z,40.2
2017-11-05T12:27:38.297Z,40.88
2017-11-05T12:28:47.661Z,40.8
2017-11-05T12:29:56.351Z,41.09
2017-11-05T12:31:05.372Z,40.51
2017-11-05T12:32:14.393Z,40.22
2017-11-05T12:33:23.415Z,40.99
2017-11-05T12:34:32.439Z,40.42
2017-11-05T12:35:41.466Z,40.42
2017-11-05T12:36:50.156Z,40.51
2017-11-05T12:37:58.844Z,40.61
2017-11-05T12:39:08.539Z,40.51
2017-11-05T12:40:17.893Z,40.7
2017-11-05T12:41:27.248Z,40.99
2017-11-05T12:42:36.278Z,40.61
2017-11-05T12:43:45.298Z,40.7
2017-11-05T12:44:54.649Z,40.61
2017-11-05T12:46:04.363Z,40.8
2017-11-05T12:47:13.402Z,40.42
2017-11-05T12:48:22.431Z,40.7
2017-11-05T12:49:31.793Z,40.51
2017-11-05T12:50:41.164Z,40.61
2017-11-05T12:51:50.184Z,39.84
2017-11-05T12:52:59.215Z,39.74
2017-11-05T12:54:07.908Z,39.84
2017-11-05T12:55:16.597Z,39.94
2017-11-05T12:56:25.621Z,39.84
2017-11-05T12:57:35.647Z,40.32
2017-11-05T12:58:44.337Z,39.64
2017-11-05T12:59:53.364Z,39.74
2017-11-05T13:01:03.059Z,39.74
2017-11-05T13:02:12.424Z,39.94
2017-11-05T13:03:22.112Z,40.32
2017-11-05T13:04:31.131Z,39.64
2017-11-05T13:05:40.491Z,39.74
2017-11-05T13:06:49.871Z,39.84
2017-11-05T13:07:59.228Z,39.74
2017-11-05T13:09:08.257Z,40.32
2017-11-05T13:10:17.283Z,39.84
2017-11-05T13:11:26.644Z,40.22
2017-11-05T13:12:35.999Z,39.94
2017-11-05T13:13:44.689Z,39.74
2017-11-05T13:14:53.751Z,40.12
2017-11-05T13:16:03.102Z,40.12
2017-11-05T13:17:12.124Z,40.7
2017-11-05T13:18:21.812Z,40.12
2017-11-05T13:19:30.505Z,40.12
2017-11-05T13:20:39.528Z,40.12
2017-11-05T13:21:48.891Z,40.61
2017-11-05T13:22:57.917Z,40.7
2017-11-05T13:24:07.275Z,40.42
2017-11-05T13:25:15.965Z,40.61
2017-11-05T13:26:25.324Z,40.61
2017-11-05T13:27:34.682Z,40.61
2017-11-05T13:28:44.045Z,40.7
2017-11-05T13:29:53.079Z,40.8
2017-11-05T13:31:02.463Z,40.7
2017-11-05T13:32:11.504Z,40.61
2017-11-05T13:33:20.855Z,40.51
2017-11-05T13:34:29.551Z,40.8
2017-11-05T13:35:38.573Z,40.7
2017-11-05T13:36:47.930Z,40.7
2017-11-05T13:37:56.950Z,40.42
2017-11-05T13:39:05.639Z,40.32
2017-11-05T13:40:14.993Z,40.51
2017-11-05T13:41:24.349Z,40.61
2017-11-05T13:42:33.368Z,40.51
2017-11-05T13:43:43.061Z,40.42
2017-11-05T13:44:52.416Z,40.61
2017-11-05T13:46:01.113Z,40.61
2017-11-05T13:47:09.802Z,40.7
2017-11-05T13:48:19.154Z,40.51
2017-11-05T13:49:28.513Z,40.9
2017-11-05T13:50:37.533Z,40.9
2017-11-05T13:51:46.226Z,40.32
2017-11-05T13:52:55.579Z,40.9
2017-11-05T13:54:04.269Z,40.32
2017-11-05T13:55:13.291Z,40.8
2017-11-05T13:56:22.311Z,40.32
2017-11-05T13:57:31.994Z,40.9
2017-11-05T13:58:41.027Z,40.32
2017-11-05T13:59:50.375Z,40.61
2017-11-05T14:00:59.396Z,40.42
2017-11-05T14:02:08.092Z,40.8
2017-11-05T14:03:17.778Z,40.51
2017-11-05T14:04:27.465Z,40.8
2017-11-05T14:05:36.487Z,40.8
2017-11-05T14:06:45.836Z,41.09
2017-11-05T14:07:54.859Z,40.8
2017-11-05T14:09:03.879Z,40.78
2017-11-05T14:10:12.569Z,41.38
2017-11-05T14:11:21.261Z,41.17
2017-11-05T14:12:30.282Z,41.46
2017-11-05T14:13:39.307Z,41.36
2017-11-05T14:14:49.331Z,41.38
2017-11-05T14:15:58.015Z,41.48
2017-11-05T14:17:07.047Z,41.38
2017-11-05T14:18:17.076Z,41.17
2017-11-05T14:19:26.108Z,41.48
2017-11-05T14:20:35.459Z,41.57
2017-11-05T14:21:45.143Z,41.07
2017-11-05T14:22:54.499Z,40.9
2017-11-05T14:24:04.518Z,40.61
2017-11-05T14:25:13.207Z,40.51
2017-11-05T14:26:22.562Z,40.8
2017-11-05T14:27:31.586Z,40.99
2017-11-05T14:28:40.937Z,40.8
2017-11-05T14:29:49.961Z,41.09
2017-11-05T14:30:58.988Z,40.9
2017-11-05T14:32:08.677Z,40.7
2017-11-05T14:33:17.702Z,40.7
2017-11-05T14:34:26.725Z,41.19
2017-11-05T14:35:35.761Z,40.9
2017-11-05T14:36:45.120Z,41.19
2017-11-05T14:37:53.812Z,40.99
2017-11-05T14:39:02.505Z,40.9
2017-11-05T14:40:11.869Z,40.8
2017-11-05T14:41:21.561Z,40.9
2017-11-05T14:42:30.915Z,41.09
2017-11-05T14:43:39.939Z,40.9
2017-11-05T14:44:49.952Z,40.61
2017-11-05T14:45:58.642Z,41.38
2017-11-05T14:47:07.663Z,40.9
2017-11-05T14:48:16.358Z,40.8
2017-11-05T14:49:25.379Z,40.51
2017-11-05T14:50:34.074Z,41.09
2017-11-05T14:51:43.096Z,40.97
2017-11-05T14:52:52.457Z,40.9